Time;durP1;ratioP1;P1;durP2;ratioP2;P2;SDS_P1;SDS_P2;PMS_P1;PMS_P2;Temp;Humidity;BMP_temperature;BMP_pressure;BME280_temperature;BME280_humidity;BME280_pressure;Samples;Min_cycle;Max_cycle;Signal;HPM_P1;HPM_P2
2023/05/16 00:00:57;;;;;;;;;;;;;;;13.48;96.25;96906.05;110208;1242;60190;-77
2023/05/16 00:03:28;;;;;;;;;;;;;;;13.44;95.31;96909.21;110238;1241;59675;-75
2023/05/16 00:05:58;;;;;;;;;;;;;;;13.41;94.09;96909.36;110177;1241;70485;-75
2023/05/16 00:08:28;;;;;;;;;;;;;;;13.37;92.06;96906.06;110170;1242;69261;-76
2023/05/16 00:10:58;;;;;;;;;;;;;;;13.32;95.05;96904.93;110143;1242;69563;-77
2023/05/16 00:13:29;;;;;;;;;;;;;;;13.25;94.44;96903.79;110114;1242;59680;-75
2023/05/16 00:16:01;;;;;;;;;;;;;;;13.22;94.28;96910.02;110154;1241;59677;-76
2023/05/16 00:18:31;;;;;;;;;;;;;;;13.17;95.95;96912.56;110207;1242;71441;-74
2023/05/16 00:21:02;;;;;;;;;;;;;;;13.13;95.51;96910.45;110154;1242;69188;-75
2023/05/16 00:23:33;;;;;;;;;;;;;;;13.10;95.79;96913.33;110161;1242;68367;-75
2023/05/16 00:26:03;;;;;;;;;;;;;;;13.07;93.68;96914.73;110152;1242;59716;-77
2023/05/16 00:28:33;;;;;;;;;;;;;;;13.03;93.23;96916.08;110178;1242;59659;-76
2023/05/16 00:31:04;;;;;;;;;;;;;;;13.01;93.14;96918.94;110179;1242;71370;-76
2023/05/16 00:33:34;;;;;;;;;;;;;;;12.99;95.09;96923.45;110200;1241;69240;-77
2023/05/16 00:36:04;;;;;;;;;;;;;;;12.97;94.40;96925.91;110154;1241;68982;-77
2023/05/16 00:38:34;;;;;;;;;;;;;;;12.95;94.47;96929.44;110206;1240;59734;-77
2023/05/16 00:41:04;;;;;;;;;;;;;;;12.94;94.81;96932.47;110191;1242;59633;-77
2023/05/16 00:43:36;;;;;;;;;;;;;;;12.94;97.78;96935.25;110192;1243;70654;-77
2023/05/16 00:46:05;;;;;;;;;;;;;;;12.93;98.53;96929.80;110128;1245;69110;-77
2023/05/16 00:48:36;;;;;;;;;;;;;;;12.91;98.20;96931.20;110059;1245;69003;-76
2023/05/16 00:51:08;;;;;;;;;;;;;;;12.89;98.58;96928.40;110173;1241;59753;-76
2023/05/16 00:53:38;;;;;;;;;;;;;;;12.89;93.95;96930.65;110120;1244;59678;-76
2023/05/16 00:56:09;;;;;;;;;;;;;;;12.89;92.23;96932.75;110189;1240;71387;-76
2023/05/16 00:58:40;;;;;;;;;;;;;;;12.89;94.09;96938.30;110189;1248;69178;-76
2023/05/16 01:01:11;;;;;;;;;;;;;;;12.88;96.36;96937.51;110159;1242;67539;-76
2023/05/16 01:03:45;;;;;;;;;;;;;;;12.89;99.53;96940.14;110166;1241;60552;-76
2023/05/16 01:06:16;;;;;;;;;;;;;;;12.87;98.78;96941.48;110198;1242;60974;-76
2023/05/16 01:08:47;;;;;;;;;;;;;;;12.86;94.54;96946.11;110217;1242;72229;-76
2023/05/16 01:11:37;;;;;;;;;;;;;;;12.87;96.31;96949.56;110208;1243;68587;-75
2023/05/16 01:14:08;;;;;;;;;;;;;;;12.88;100.00;96947.56;110058;1243;68605;-75
2023/05/16 01:16:43;;;;;;;;;;;;;;;12.89;99.95;96943.23;110190;1241;60515;-76
2023/05/16 01:19:34;;;;;;;;;;;;;;;12.90;98.98;96944.75;110149;1246;60451;-76
2023/05/16 01:22:16;;;;;;;;;;;;;;;12.90;100.00;96948.73;110104;1247;72049;-76
2023/05/16 01:25:01;;;;;;;;;;;;;;;12.91;100.00;96951.11;110138;1242;69270;-75
2023/05/16 01:27:31;;;;;;;;;;;;;;;12.92;100.00;96950.66;110154;1242;69874;-77
2023/05/16 01:30:10;;;;;;;;;;;;;;;12.93;100.00;96951.98;110069;1244;60562;-75
2023/05/16 01:32:39;;;;;;;;;;;;;;;12.94;100.00;96950.70;110179;1242;60487;-77
2023/05/16 01:35:13;;;;;;;;;;;;;;;12.93;98.47;96948.45;110204;1242;71466;-77
2023/05/16 01:37:55;;;;;;;;;;;;;;;12.92;99.66;96947.67;110226;1242;69283;-76
2023/05/16 01:40:38;;;;;;;;;;;;;;;12.93;99.87;96946.77;110200;1242;69320;-76
2023/05/16 01:43:10;;;;;;;;;;;;;;;12.92;100.00;96945.72;110189;1241;60503;-75
2023/05/16 01:45:49;;;;;;;;;;;;;;;12.93;100.00;96952.97;110130;1242;60487;-76
2023/05/16 01:48:30;;;;;;;;;;;;;;;12.95;100.00;96955.94;110204;1242;71448;-76
2023/05/16 01:51:01;;;;;;;;;;;;;;;12.97;97.73;96950.91;110218;1242;69143;-76
2023/05/16 01:53:38;;;;;;;;;;;;;;;12.97;97.35;96955.80;110254;1242;69237;-76
2023/05/16 01:56:10;;;;;;;;;;;;;;;12.82;100.00;96965.18;110129;1241;60547;-76
2023/05/16 01:58:45;;;;;;;;;;;;;;;12.76;98.97;96954.35;110167;1242;60472;-76
2023/05/16 02:01:15;;;;;;;;;;;;;;;12.70;99.70;96953.61;110188;1242;72237;-76
2023/05/16 02:03:47;;;;;;;;;;;;;;;12.59;100.00;96963.38;110260;1242;69253;-76
2023/05/16 02:06:18;;;;;;;;;;;;;;;12.51;100.00;96947.46;109701;1245;662986;-75
2023/05/16 02:08:50;;;;;;;;;;;;;;;12.47;100.00;96947.13;110126;1240;60532;-76
2023/05/16 02:11:22;;;;;;;;;;;;;;;12.40;100.00;96958.02;110211;1242;60440;-76
2023/05/16 02:13:53;;;;;;;;;;;;;;;12.30;100.00;96962.30;110195;1249;72061;-76
2023/05/16 02:16:23;;;;;;;;;;;;;;;12.31;100.00;96956.05;110211;1242;68499;-76
2023/05/16 02:18:54;;;;;;;;;;;;;;;12.35;100.00;96956.74;110219;1241;69157;-76
2023/05/16 02:21:24;;;;;;;;;;;;;;;12.39;100.00;96964.59;110228;1240;60510;-76
2023/05/16 02:23:55;;;;;;;;;;;;;;;12.44;100.00;96970.67;110104;1245;60527;-76
2023/05/16 02:26:27;;;;;;;;;;;;;;;12.48;100.00;96972.95;110209;1242;72160;-76
2023/05/16 02:28:59;;;;;;;;;;;;;;;12.48;100.00;96966.58;110241;1242;68517;-76
2023/05/16 02:31:31;;;;;;;;;;;;;;;12.50;100.00;96965.42;110216;1241;69108;-74
2023/05/16 02:34:02;;;;;;;;;;;;;;;12.51;100.00;96971.77;110225;1242;60550;-77
2023/05/16 02:36:33;;;;;;;;;;;;;;;12.53;100.00;96974.95;110224;1242;60543;-76
2023/05/16 02:39:07;;;;;;;;;;;;;;;12.56;100.00;96977.98;110258;1240;72219;-76
2023/05/16 02:41:38;;;;;;;;;;;;;;;12.58;100.00;96981.29;110212;1242;68501;-75
2023/05/16 02:44:10;;;;;;;;;;;;;;;12.61;100.00;96981.42;110215;1242;68858;-76
2023/05/16 02:46:43;;;;;;;;;;;;;;;12.62;100.00;96986.16;110207;1242;60495;-75
2023/05/16 02:49:14;;;;;;;;;;;;;;;12.64;100.00;96987.59;110244;1242;60434;-76
2023/05/16 02:51:46;;;;;;;;;;;;;;;12.65;100.00;96990.69;110172;1242;71414;-75
2023/05/16 02:54:17;;;;;;;;;;;;;;;12.65;100.00;96991.01;110204;1241;69236;-75
2023/05/16 02:56:46;;;;;;;;;;;;;;;12.64;100.00;96987.06;110155;1243;69385;-75
2023/05/16 02:59:17;;;;;;;;;;;;;;;12.63;100.00;96985.63;110160;1242;60482;-76
2023/05/16 03:01:47;;;;;;;;;;;;;;;12.60;100.00;96975.65;110230;1242;60481;-76
2023/05/16 03:04:17;;;;;;;;;;;;;;;12.60;100.00;96976.46;110206;1241;72784;-76
2023/05/16 03:06:46;;;;;;;;;;;;;;;12.61;100.00;96978.75;110138;1245;69119;-76
2023/05/16 03:09:15;;;;;;;;;;;;;;;12.63;100.00;96983.67;110187;1240;68327;-76
2023/05/16 03:11:47;;;;;;;;;;;;;;;12.64;100.00;96982.02;110219;1242;60566;-76
2023/05/16 03:14:20;;;;;;;;;;;;;;;12.65;100.00;96983.30;110209;1242;60550;-75
2023/05/16 03:16:51;;;;;;;;;;;;;;;12.66;100.00;96980.94;110222;1240;71472;-76
2023/05/16 03:19:21;;;;;;;;;;;;;;;12.69;100.00;96986.27;110228;1242;69265;-76
2023/05/16 03:21:51;;;;;;;;;;;;;;;12.74;100.00;96987.23;110147;1245;69744;-77
2023/05/16 03:24:21;;;;;;;;;;;;;;;12.81;100.00;96985.38;110208;1242;60502;-76
2023/05/16 03:26:50;;;;;;;;;;;;;;;12.89;100.00;96987.11;110209;1242;60463;-76
2023/05/16 03:29:21;;;;;;;;;;;;;;;12.97;100.00;96993.28;110155;1240;72772;-76
2023/05/16 03:31:50;;;;;;;;;;;;;;;13.00;100.00;96984.56;110236;1241;69775;-77
2023/05/16 03:34:21;;;;;;;;;;;;;;;12.97;100.00;96980.13;110179;1241;69549;-75
2023/05/16 03:36:51;;;;;;;;;;;;;;;12.94;100.00;96982.28;110111;1245;60476;-75
2023/05/16 03:39:20;;;;;;;;;;;;;;;12.90;100.00;96979.73;110191;1243;60485;-74
2023/05/16 03:41:50;;;;;;;;;;;;;;;12.89;100.00;96975.63;110195;1242;71982;-76
2023/05/16 03:44:19;;;;;;;;;;;;;;;12.89;100.00;96974.02;110163;1241;68585;-75
2023/05/16 03:46:50;;;;;;;;;;;;;;;12.90;100.00;96974.83;110164;1240;68541;-75
2023/05/16 03:49:20;;;;;;;;;;;;;;;12.92;100.00;96972.67;110210;1242;60933;-76
2023/05/16 03:51:49;;;;;;;;;;;;;;;12.96;100.00;96976.15;110194;1242;60488;-76
2023/05/16 03:54:18;;;;;;;;;;;;;;;13.01;100.00;96971.38;110165;1240;72537;-75
2023/05/16 03:56:47;;;;;;;;;;;;;;;13.06;100.00;96975.11;110177;1242;69632;-77
2023/05/16 03:59:16;;;;;;;;;;;;;;;13.12;100.00;96977.18;110199;1242;69294;-76
2023/05/16 04:01:46;;;;;;;;;;;;;;;13.17;100.00;96983.07;110191;1241;60545;-78
2023/05/16 04:04:16;;;;;;;;;;;;;;;13.23;100.00;96984.81;110251;1240;60408;-75
2023/05/16 04:06:45;;;;;;;;;;;;;;;13.29;100.00;96990.42;110198;1240;72907;-76
2023/05/16 04:09:14;;;;;;;;;;;;;;;13.34;100.00;96988.36;110239;1241;69086;-77
2023/05/16 04:11:43;;;;;;;;;;;;;;;13.41;100.00;96992.23;110199;1243;69237;-77
2023/05/16 04:14:12;;;;;;;;;;;;;;;13.49;100.00;96996.50;110200;1242;60531;-77
2023/05/16 04:16:41;;;;;;;;;;;;;;;13.56;100.00;96998.62;110229;1242;60492;-77
2023/05/16 04:19:10;;;;;;;;;;;;;;;13.63;100.00;97009.55;110181;1249;72204;-77
2023/05/16 04:21:40;;;;;;;;;;;;;;;13.66;100.00;97017.79;110217;1245;69714;-77
2023/05/16 04:24:10;;;;;;;;;;;;;;;13.59;100.00;97019.48;110199;1242;69131;-77
2023/05/16 04:26:38;;;;;;;;;;;;;;;13.56;100.00;97022.94;110222;1242;60518;-76
2023/05/16 04:29:08;;;;;;;;;;;;;;;13.57;100.00;97017.63;110191;1242;60554;-77
2023/05/16 04:31:38;;;;;;;;;;;;;;;13.62;100.00;97012.10;110169;1243;72768;-75
2023/05/16 04:34:08;;;;;;;;;;;;;;;13.68;100.00;97013.39;110235;1241;69136;-75
2023/05/16 04:36:37;;;;;;;;;;;;;;;13.77;100.00;97014.60;110233;1247;69270;-76
2023/05/16 04:39:07;;;;;;;;;;;;;;;13.87;100.00;97017.31;110192;1243;60486;-75
2023/05/16 04:41:37;;;;;;;;;;;;;;;13.99;100.00;97015.16;110179;1242;60586;-76
2023/05/16 04:44:09;;;;;;;;;;;;;;;14.14;100.00;97010.77;110221;1242;72174;-76
2023/05/16 04:46:40;;;;;;;;;;;;;;;14.29;100.00;97008.27;110198;1242;68477;-76
2023/05/16 04:49:10;;;;;;;;;;;;;;;14.46;100.00;97008.44;110229;1241;68617;-77
2023/05/16 04:51:39;;;;;;;;;;;;;;;14.63;100.00;97002.63;110260;1241;60502;-76
2023/05/16 04:54:09;;;;;;;;;;;;;;;14.81;100.00;97000.64;110220;1242;60471;-76
2023/05/16 04:56:39;;;;;;;;;;;;;;;14.96;100.00;96993.69;110190;1242;72280;-77
2023/05/16 04:59:09;;;;;;;;;;;;;;;15.11;99.55;96989.23;110192;1243;69265;-76
2023/05/16 05:01:39;;;;;;;;;;;;;;;15.22;97.53;96986.19;110158;1242;69248;-77
2023/05/16 05:04:08;;;;;;;;;;;;;;;15.31;95.76;96989.39;110174;1242;60547;-75
2023/05/16 05:06:37;;;;;;;;;;;;;;;15.40;94.33;96983.09;110177;1242;60501;-76
2023/05/16 05:09:07;;;;;;;;;;;;;;;15.44;92.30;96979.66;110130;1242;72126;-75
2023/05/16 05:11:35;;;;;;;;;;;;;;;15.49;92.51;96984.23;110183;1246;69220;-76
2023/05/16 05:14:05;;;;;;;;;;;;;;;15.52;92.00;96981.61;110167;1243;69052;-76
2023/05/16 05:16:36;;;;;;;;;;;;;;;15.56;92.07;96969.85;110169;1245;60503;-76
2023/05/16 05:19:05;;;;;;;;;;;;;;;15.56;91.76;96964.24;110161;1245;60551;-77
2023/05/16 05:21:34;;;;;;;;;;;;;;;15.59;92.04;96965.23;110127;1246;71445;-77
2023/05/16 05:24:04;;;;;;;;;;;;;;;15.63;92.63;96961.45;110200;1251;68982;-76
2023/05/16 05:26:33;;;;;;;;;;;;;;;15.67;92.50;96956.81;110127;1243;70316;-76
2023/05/16 05:29:02;;;;;;;;;;;;;;;15.73;94.09;96957.67;110120;1246;60483;-77
2023/05/16 05:31:34;;;;;;;;;;;;;;;15.78;94.39;96956.25;110128;1246;60479;-77
2023/05/16 05:34:03;;;;;;;;;;;;;;;15.83;94.19;96957.88;110126;1241;71265;-76
2023/05/16 05:36:32;;;;;;;;;;;;;;;15.90;93.54;96953.98;110159;1243;69345;-76
2023/05/16 05:39:00;;;;;;;;;;;;;;;15.97;92.82;96958.05;110167;1246;69193;-76
2023/05/16 05:41:29;;;;;;;;;;;;;;;16.03;92.11;96963.17;110120;1245;60486;-77
2023/05/16 05:43:59;;;;;;;;;;;;;;;16.09;92.84;96967.85;110132;1244;60484;-76
2023/05/16 05:46:28;;;;;;;;;;;;;;;16.15;92.46;96972.73;110095;1245;73144;-76
2023/05/16 05:48:57;;;;;;;;;;;;;;;16.22;91.30;96968.31;110171;1245;69336;-76
2023/05/16 05:51:26;;;;;;;;;;;;;;;16.26;91.37;96970.83;110115;1246;69850;-76
2023/05/16 05:53:56;;;;;;;;;;;;;;;16.29;92.41;96972.95;110132;1243;60556;-76
2023/05/16 05:56:25;;;;;;;;;;;;;;;16.34;92.13;96979.18;110135;1245;60523;-77
2023/05/16 05:58:54;;;;;;;;;;;;;;;16.39;91.83;96980.07;110128;1246;72780;-76
2023/05/16 06:01:23;;;;;;;;;;;;;;;16.45;92.05;96979.10;110161;1247;69549;-76
2023/05/16 06:03:53;;;;;;;;;;;;;;;16.54;91.97;96987.68;110144;1243;70128;-79
2023/05/16 06:06:22;;;;;;;;;;;;;;;16.59;91.01;96996.43;110124;1246;60501;-79
2023/05/16 06:08:51;;;;;;;;;;;;;;;16.65;90.71;96999.36;110188;1243;60516;-79
2023/05/16 06:11:20;;;;;;;;;;;;;;;16.72;90.61;97004.81;110144;1243;72200;-79
2023/05/16 06:13:51;;;;;;;;;;;;;;;16.80;90.41;97015.58;110111;1243;69757;-80
2023/05/16 06:16:24;;;;;;;;;;;;;;;16.89;90.51;97015.94;110133;1249;69871;-81
2023/05/16 06:18:53;;;;;;;;;;;;;;;16.97;91.02;97012.30;110169;1246;60485;-79
2023/05/16 06:21:23;;;;;;;;;;;;;;;17.01;89.47;97010.78;110208;1245;60504;-79
2023/05/16 06:23:52;;;;;;;;;;;;;;;17.06;89.79;97016.55;110138;1244;72746;-80
2023/05/16 06:26:21;;;;;;;;;;;;;;;17.08;90.24;97019.52;110158;1242;69557;-79
2023/05/16 06:28:50;;;;;;;;;;;;;;;17.09;89.96;97025.39;110154;1241;69613;-79
2023/05/16 06:31:19;;;;;;;;;;;;;;;17.02;91.79;97034.39;110134;1251;60549;-79
2023/05/16 06:33:48;;;;;;;;;;;;;;;16.93;90.99;97029.02;110152;1245;60486;-79
2023/05/16 06:36:17;;;;;;;;;;;;;;;16.87;90.19;97028.61;110161;1244;71215;-79
2023/05/16 06:38:46;;;;;;;;;;;;;;;16.79;89.88;97022.05;110135;1245;69231;-77
2023/05/16 06:41:16;;;;;;;;;;;;;;;16.71;89.75;97017.20;110119;1251;68517;-79
2023/05/16 06:43:45;;;;;;;;;;;;;;;16.65;90.06;97014.11;110138;1251;60564;-78
2023/05/16 06:46:14;;;;;;;;;;;;;;;16.62;90.78;97014.42;110134;1243;60487;-78
2023/05/16 06:48:43;;;;;;;;;;;;;;;16.63;90.68;97011.86;110142;1246;70499;-78
2023/05/16 06:51:13;;;;;;;;;;;;;;;16.65;90.83;97010.16;110106;1241;69134;-79
2023/05/16 06:53:42;;;;;;;;;;;;;;;16.64;90.81;97004.05;110109;1244;69852;-79
2023/05/16 06:56:12;;;;;;;;;;;;;;;16.66;90.84;97006.42;110089;1246;60493;-79
2023/05/16 06:58:40;;;;;;;;;;;;;;;16.69;90.68;97015.70;110156;1251;60963;-78
2023/05/16 07:01:09;;;;;;;;;;;;;;;16.73;89.84;97019.61;110156;1245;72389;-79
2023/05/16 07:03:38;;;;;;;;;;;;;;;16.76;88.88;97023.18;110157;1243;69294;-78
2023/05/16 07:06:08;;;;;;;;;;;;;;;16.80;89.00;97018.61;110134;1243;69120;-79
2023/05/16 07:08:37;;;;;;;;;;;;;;;16.86;88.31;97020.58;110149;1244;60572;-79
2023/05/16 07:11:10;;;;;;;;;;;;;;;16.93;88.07;97022.52;110117;1246;60564;-79
2023/05/16 07:13:39;;;;;;;;;;;;;;;16.98;88.08;97032.36;110114;1245;72018;-78
2023/05/16 07:16:08;;;;;;;;;;;;;;;17.04;87.77;97033.87;110122;1244;69809;-79
2023/05/16 07:18:37;;;;;;;;;;;;;;;17.12;87.33;97035.38;110144;1241;69724;-79
2023/05/16 07:21:06;;;;;;;;;;;;;;;17.19;87.75;97038.02;110135;1245;60549;-78
2023/05/16 07:23:35;;;;;;;;;;;;;;;17.29;86.99;97036.83;110180;1243;60500;-79
2023/05/16 07:26:04;;;;;;;;;;;;;;;17.39;86.35;97043.02;110197;1242;73155;-76
2023/05/16 07:28:34;;;;;;;;;;;;;;;17.51;86.20;97041.18;110187;1241;69243;-77
2023/05/16 07:31:03;;;;;;;;;;;;;;;17.65;85.63;97040.36;110183;1241;69276;-77
2023/05/16 07:33:32;;;;;;;;;;;;;;;17.76;84.48;97041.52;110177;1244;60496;-77
2023/05/16 07:36:01;;;;;;;;;;;;;;;17.87;84.53;97042.14;110201;1241;60408;-78
2023/05/16 07:38:44;;;;;;;;;;;;;;;18.01;82.92;97039.06;110130;1245;72627;-77
2023/05/16 07:41:13;;;;;;;;;;;;;;;18.12;82.38;97038.15;110173;1246;69735;-76
2023/05/16 07:43:42;;;;;;;;;;;;;;;18.21;81.95;97035.70;110161;1241;68347;-77
2023/05/16 07:46:10;;;;;;;;;;;;;;;18.27;80.80;97034.56;110141;1245;60559;-75
2023/05/16 07:48:39;;;;;;;;;;;;;;;18.35;79.66;97034.58;110181;1241;60602;-78
2023/05/16 07:51:08;;;;;;;;;;;;;;;18.44;78.03;97036.65;110205;1242;72618;-78
2023/05/16 07:53:37;;;;;;;;;;;;;;;18.57;77.69;97043.70;110188;1242;69018;-77
2023/05/16 07:56:05;;;;;;;;;;;;;;;18.71;77.36;97043.64;110159;1244;68516;-77
2023/05/16 07:58:35;;;;;;;;;;;;;;;18.78;75.36;97039.30;110213;1242;60522;-78
2023/05/16 08:01:05;;;;;;;;;;;;;;;18.82;74.28;97039.01;110164;1242;60518;-77
2023/05/16 08:03:34;;;;;;;;;;;;;;;18.92;75.98;97038.14;110253;1241;72878;-77
2023/05/16 08:06:03;;;;;;;;;;;;;;;19.05;76.50;97040.16;110236;1241;68365;-78
2023/05/16 08:08:32;;;;;;;;;;;;;;;19.17;76.31;97042.21;110186;1242;68493;-78
2023/05/16 08:11:02;;;;;;;;;;;;;;;19.16;74.95;97038.70;110157;1241;60554;-81
2023/05/16 08:13:30;;;;;;;;;;;;;;;19.15;74.72;97033.09;110188;1242;60411;-81
2023/05/16 08:15:59;;;;;;;;;;;;;;;19.22;74.42;97030.79;110214;1249;72133;-81
2023/05/16 08:18:28;;;;;;;;;;;;;;;19.27;74.21;97035.69;110231;1243;70194;-81
2023/05/16 08:20:57;;;;;;;;;;;;;;;19.39;75.93;97037.35;110197;1242;69350;-81
2023/05/16 08:23:26;;;;;;;;;;;;;;;19.49;74.57;97040.29;110166;1242;60483;-82
2023/05/16 08:25:56;;;;;;;;;;;;;;;19.54;73.04;97044.06;110257;1242;60599;-81
2023/05/16 08:28:25;;;;;;;;;;;;;;;19.69;73.75;97046.07;110229;1242;71553;-82
2023/05/16 08:30:54;;;;;;;;;;;;;;;19.81;72.66;97042.07;110266;1243;68253;-82
2023/05/16 08:33:23;;;;;;;;;;;;;;;19.84;73.04;97039.05;110462;1241;69870;-80
2023/05/16 08:35:52;;;;;;;;;;;;;;;19.92;71.93;97037.84;110382;1242;60885;-82
2023/05/16 08:38:22;;;;;;;;;;;;;;;19.98;70.72;97036.92;110273;1242;60868;-82
2023/05/16 08:40:51;;;;;;;;;;;;;;;19.93;71.49;97033.95;110237;1242;72740;-80
2023/05/16 08:43:19;;;;;;;;;;;;;;;19.98;70.74;97031.81;110257;1242;69095;-81
2023/05/16 08:45:49;;;;;;;;;;;;;;;20.03;71.46;97027.13;110283;1241;70031;-81
2023/05/16 08:48:21;;;;;;;;;;;;;;;20.07;71.00;97024.56;110266;1242;60445;-81
2023/05/16 08:50:50;;;;;;;;;;;;;;;20.09;71.26;97021.27;110227;1242;60512;-81
2023/05/16 08:53:21;;;;;;;;;;;;;;;20.23;70.55;97014.16;110216;1240;71287;-82
2023/05/16 08:55:52;;;;;;;;;;;;;;;20.27;69.70;97009.77;110266;1241;69035;-81
2023/05/16 08:58:28;;;;;;;;;;;;;;;20.37;69.07;97004.52;110169;1241;69751;-82
2023/05/16 09:00:57;;;;;;;;;;;;;;;20.40;67.59;97005.09;110115;1245;60533;-82
2023/05/16 09:03:27;;;;;;;;;;;;;;;20.58;67.75;97009.79;110204;1241;60553;-82
2023/05/16 09:05:57;;;;;;;;;;;;;;;20.74;67.13;97005.58;110188;1242;71964;-82
2023/05/16 09:08:26;;;;;;;;;;;;;;;20.84;66.46;97001.17;110203;1240;69635;-82
2023/05/16 09:10:54;;;;;;;;;;;;;;;20.93;66.27;97001.19;110179;1244;69289;-81
2023/05/16 09:13:24;;;;;;;;;;;;;;;21.01;65.76;96998.38;110221;1242;60410;-82
2023/05/16 09:16:12;;;;;;;;;;;;;;;21.09;65.25;96993.02;110256;1241;60544;-80
2023/05/16 09:18:52;;;;;;;;;;;;;;;21.26;64.76;96996.04;110184;1241;72654;-81
2023/05/16 09:21:22;;;;;;;;;;;;;;;21.42;64.40;96990.24;110223;1242;69840;-80
2023/05/16 09:23:51;;;;;;;;;;;;;;;21.51;64.01;96994.76;110179;1242;69551;-80
2023/05/16 09:26:21;;;;;;;;;;;;;;;21.66;63.31;96997.31;110229;1243;60518;-80
2023/05/16 09:28:52;;;;;;;;;;;;;;;21.78;63.08;96994.91;110238;1242;60490;-80
2023/05/16 09:31:36;;;;;;;;;;;;;;;21.91;63.59;96993.99;110156;1243;72519;-83
2023/05/16 09:34:11;;;;;;;;;;;;;;;22.04;63.41;96992.98;110214;1242;70063;-81
2023/05/16 09:36:41;;;;;;;;;;;;;;;22.12;63.16;96984.42;110211;1242;68714;-81
2023/05/16 09:39:14;;;;;;;;;;;;;;;22.22;62.52;96978.61;110159;1242;60484;-80
2023/05/16 09:41:43;;;;;;;;;;;;;;;22.22;63.08;96976.48;110139;1243;60491;-81
2023/05/16 09:44:12;;;;;;;;;;;;;;;22.09;62.97;96978.05;110203;1241;72789;-80
2023/05/16 09:46:41;;;;;;;;;;;;;;;22.11;63.98;96979.05;110126;1243;68825;-81
2023/05/16 09:49:13;;;;;;;;;;;;;;;22.20;64.28;96971.77;110115;1243;69874;-80
2023/05/16 09:51:42;;;;;;;;;;;;;;;22.21;63.97;96969.46;110211;1246;60591;-80
2023/05/16 09:54:11;;;;;;;;;;;;;;;22.33;64.20;96970.06;110100;1241;60572;-81
2023/05/16 09:56:50;;;;;;;;;;;;;;;22.50;62.87;96973.36;110196;1241;72184;-77
2023/05/16 09:59:20;;;;;;;;;;;;;;;22.56;63.02;96979.36;110177;1242;69674;-78
2023/05/16 10:01:50;;;;;;;;;;;;;;;22.48;64.51;96979.86;110174;1242;69724;-78
2023/05/16 10:04:19;;;;;;;;;;;;;;;22.70;64.94;96973.77;110186;1242;60855;-76
2023/05/16 10:06:50;;;;;;;;;;;;;;;22.89;64.60;96965.80;110185;1240;60549;-78
2023/05/16 10:09:20;;;;;;;;;;;;;;;23.16;64.93;96965.84;110144;1242;71966;-78
2023/05/16 10:11:50;;;;;;;;;;;;;;;23.40;63.25;96962.56;110207;1242;68327;-79
2023/05/16 10:14:20;;;;;;;;;;;;;;;23.61;63.58;96966.13;110201;1243;69824;-77
2023/05/16 10:16:51;;;;;;;;;;;;;;;23.87;62.67;96962.69;110300;1242;60456;-77
2023/05/16 10:19:22;;;;;;;;;;;;;;;24.03;61.76;96962.52;110214;1245;60626;-78
2023/05/16 10:21:53;;;;;;;;;;;;;;;24.11;61.70;96952.89;110207;1241;72045;-78
2023/05/16 10:24:25;;;;;;;;;;;;;;;24.24;61.48;96949.55;110209;1242;69257;-78
2023/05/16 10:26:55;;;;;;;;;;;;;;;24.55;61.33;96945.17;110156;1242;69115;-77
2023/05/16 10:29:24;;;;;;;;;;;;;;;24.74;58.60;96945.66;110170;1242;60502;-78
2023/05/16 10:31:54;;;;;;;;;;;;;;;24.98;59.14;96940.01;110215;1242;60486;-78
2023/05/16 10:34:26;;;;;;;;;;;;;;;25.11;58.23;96931.59;110180;1241;72720;-78
2023/05/16 10:36:54;;;;;;;;;;;;;;;25.39;57.21;96932.78;110207;1242;69228;-78
2023/05/16 10:39:24;;;;;;;;;;;;;;;25.69;55.53;96935.55;110192;1242;69265;-78
2023/05/16 10:41:53;;;;;;;;;;;;;;;25.97;55.45;96934.92;110188;1241;60506;-78
2023/05/16 10:44:21;;;;;;;;;;;;;;;26.19;54.10;96925.84;110185;1241;60531;-77
2023/05/16 10:46:50;;;;;;;;;;;;;;;26.26;50.57;96920.21;110248;1240;71395;-77
2023/05/16 10:49:23;;;;;;;;;;;;;;;26.30;49.62;96919.27;110379;1243;68417;-77
2023/05/16 10:52:02;;;;;;;;;;;;;;;26.76;50.25;96917.30;110231;1241;69271;-77
2023/05/16 10:54:34;;;;;;;;;;;;;;;27.01;48.23;96918.97;110237;1241;60496;-77
2023/05/16 10:57:10;;;;;;;;;;;;;;;27.26;47.75;96917.99;110284;1242;60505;-76
2023/05/16 10:59:41;;;;;;;;;;;;;;;27.48;44.77;96912.80;110300;1240;71412;-76
2023/05/16 11:02:33;;;;;;;;;;;;;;;27.28;44.78;96913.05;110245;1245;69850;-76
2023/05/16 11:05:02;;;;;;;;;;;;;;;27.14;44.82;96913.02;110226;1242;69906;-74
2023/05/16 11:07:33;;;;;;;;;;;;;;;27.05;45.19;96913.11;110229;1240;60485;-76
2023/05/16 11:10:09;;;;;;;;;;;;;;;26.78;45.07;96907.05;110249;1242;60543;-76
2023/05/16 11:12:42;;;;;;;;;;;;;;;27.04;44.63;96909.84;110238;1242;72085;-76
2023/05/16 11:15:22;;;;;;;;;;;;;;;27.26;45.15;96902.11;110220;1242;69226;-76
2023/05/16 11:18:08;;;;;;;;;;;;;;;27.51;45.19;96903.50;110367;1243;69119;-77
2023/05/16 11:20:37;;;;;;;;;;;;;;;27.61;45.04;96905.23;110210;1241;60408;-77
2023/05/16 11:23:18;;;;;;;;;;;;;;;27.70;44.72;96899.72;110213;1242;60482;-76
2023/05/16 11:25:49;;;;;;;;;;;;;;;27.62;43.08;96898.66;110356;1242;72665;-76
2023/05/16 11:41:08;;;;;;;7.80;2.80;;;;;;;27.26;42.50;96880.08;107363;1271;609963;-75
2023/05/16 11:43:43;;;;;;;6.80;2.50;;;;;;;27.00;42.60;96872.17;108981;1258;282291;-76
2023/05/16 11:46:13;;;;;;;6.60;2.00;;;;;;;27.09;42.85;96870.36;109276;1255;57720;-76
2023/05/16 11:48:45;;;;;;;5.80;2.50;;;;;;;27.11;42.17;96867.00;109310;1254;69421;-77
2023/05/16 11:51:17;;;;;;;6.40;2.20;;;;;;;27.09;41.58;96861.90;109261;1254;69086;-76
2023/05/16 11:53:51;;;;;;;4.30;1.70;;;;;;;27.05;42.03;96858.41;109292;1254;69829;-74
2023/05/16 11:56:22;;;;;;;4.50;1.60;;;;;;;27.00;41.86;96858.48;109222;1255;57649;-76
2023/05/16 11:58:51;;;;;;;6.70;2.00;;;;;;;26.87;42.10;96854.30;109243;1255;57761;-75
2023/05/16 12:01:20;;;;;;;6.10;2.00;;;;;;;26.69;42.75;96853.66;109182;1254;69187;-75
2023/05/16 12:03:56;;;;;;;6.80;2.00;;;;;;;26.49;43.71;96851.42;109145;1254;69093;-76
2023/05/16 12:06:28;;;;;;;6.00;2.00;;;;;;;26.37;44.02;96842.80;109272;1254;68382;-75
2023/05/16 12:08:57;;;;;;;5.90;2.50;;;;;;;26.01;44.17;96846.73;109132;1254;58103;-75
2023/05/16 12:11:26;;;;;;;5.30;1.90;;;;;;;25.79;44.42;96841.48;109351;1254;58090;-76
2023/05/16 12:13:55;;;;;;;5.20;1.80;;;;;;;25.72;45.15;96835.81;109294;1254;70239;-75
2023/05/16 12:16:24;;;;;;;;;;;;;;;25.61;45.36;96832.12;109300;1254;70433;-76
2023/05/16 12:18:53;;;;;;;5.00;2.10;;;;;;;25.35;46.16;96833.34;109293;1254;69083;-75
2023/05/16 12:21:22;;;;;;;;;;;;;;;25.26;46.37;96828.27;109357;1255;58084;-75
2023/05/16 12:23:55;;;;;;;6.00;2.30;;;;;;;25.07;48.27;96827.21;109335;1253;58069;-77
2023/05/16 12:26:26;;;;;;;6.00;2.00;;;;;;;25.04;48.96;96825.87;109303;1254;69602;-76
2023/05/16 12:28:57;;;;;;;3.80;1.90;;;;;;;25.04;48.72;96823.55;109329;1254;69766;-76
2023/05/16 12:31:26;;;;;;;9.90;2.70;;;;;;;25.01;49.15;96818.56;109247;1254;69236;-76
2023/05/16 12:34:00;;;;;;;7.90;2.00;;;;;;;25.00;48.60;96817.05;109268;1254;58135;-76
2023/05/16 12:36:33;;;;;;;5.20;2.00;;;;;;;24.97;48.69;96813.20;109293;1254;58143;-78
2023/05/16 12:39:03;;;;;;;8.90;2.60;;;;;;;24.86;49.24;96813.24;109516;1254;69892;-76
2023/05/16 12:41:32;;;;;;;7.90;2.90;;;;;;;24.74;49.79;96806.50;109259;1254;69347;-77
2023/05/16 12:44:18;;;;;;;7.10;1.80;;;;;;;24.69;50.33;96802.63;109335;1254;70037;-76
2023/05/16 12:46:51;;;;;;;6.60;2.60;;;;;;;24.60;50.82;96799.05;109290;1255;58100;-75
2023/05/16 12:49:23;;;;;;;6.90;1.90;;;;;;;24.55;50.42;96796.95;109348;1255;58088;-75
2023/05/16 12:51:54;;;;;;;9.90;2.60;;;;;;;24.49;50.67;96795.05;109405;1254;69735;-76
2023/05/16 12:54:24;;;;;;;6.50;2.40;;;;;;;24.46;50.71;96797.55;109290;1255;69594;-75
2023/05/16 12:56:53;;;;;;;5.10;1.80;;;;;;;24.46;50.93;96797.16;109276;1252;69681;-76